sensor_id;sensor_type;location;lat;lon;timestamp;temperature;humidity
5334;DHT22;2689;50.954;7.116;2022-12-07T00:02:17;6.20;99.90
5334;DHT22;2689;50.954;7.116;2022-12-07T00:04:45;6.10;99.90
5334;DHT22;2689;50.954;7.116;2022-12-07T00:07:13;6.20;99.90
5334;DHT22;2689;50.954;7.116;2022-12-07T00:09:44;6.20;99.90
5334;DHT22;2689;50.954;7.116;2022-12-07T00:12:11;6.20;99.90
5334;DHT22;2689;50.954;7.116;2022-12-07T00:14:38;6.20;99.90
5334;DHT22;2689;50.954;7.116;2022-12-07T00:17:15;6.10;99.90
5334;DHT22;2689;50.954;7.116;2022-12-07T00:19:42;6.10;99.90
5334;DHT22;2689;50.954;7.116;2022-12-07T00:22:10;6.10;99.90
5334;DHT22;2689;50.954;7.116;2022-12-07T00:24:39;6.10;99.90
5334;DHT22;2689;50.954;7.116;2022-12-07T00:27:06;6.10;99.90
5334;DHT22;2689;50.954;7.116;2022-12-07T00:29:33;6.10;99.90
5334;DHT22;2689;50.954;7.116;2022-12-07T00:32:00;6.10;99.90
5334;DHT22;2689;50.954;7.116;2022-12-07T00:34:29;6.20;99.90
5334;DHT22;2689;50.954;7.116;2022-12-07T00:36:56;6.20;99.90
5334;DHT22;2689;50.954;7.116;2022-12-07T00:39:23;6.10;99.90
5334;DHT22;2689;50.954;7.116;2022-12-07T00:41:52;6.10;99.90
5334;DHT22;2689;50.954;7.116;2022-12-07T00:44:21;6.10;99.90
5334;DHT22;2689;50.954;7.116;2022-12-07T00:46:48;6.20;99.90
5334;DHT22;2689;50.954;7.116;2022-12-07T00:49:18;6.20;99.90
5334;DHT22;2689;50.954;7.116;2022-12-07T00:51:47;6.20;99.90
5334;DHT22;2689;50.954;7.116;2022-12-07T00:54:16;6.20;99.90
5334;DHT22;2689;50.954;7.116;2022-12-07T00:56:43;6.20;99.90
5334;DHT22;2689;50.954;7.116;2022-12-07T00:59:25;6.20;99.90
5334;DHT22;2689;50.954;7.116;2022-12-07T01:01:57;6.20;99.90
5334;DHT22;2689;50.954;7.116;2022-12-07T01:04:26;6.20;99.90
5334;DHT22;2689;50.954;7.116;2022-12-07T01:06:54;6.20;99.90
5334;DHT22;2689;50.954;7.116;2022-12-07T01:09:21;6.20;99.90
5334;DHT22;2689;50.954;7.116;2022-12-07T01:11:48;6.20;99.90
5334;DHT22;2689;50.954;7.116;2022-12-07T01:14:16;6.20;99.90
5334;DHT22;2689;50.954;7.116;2022-12-07T01:16:46;6.20;99.90
5334;DHT22;2689;50.954;7.116;2022-12-07T01:19:13;6.20;99.90
5334;DHT22;2689;50.954;7.116;2022-12-07T01:21:47;6.30;99.90
5334;DHT22;2689;50.954;7.116;2022-12-07T01:24:28;6.20;99.90
5334;DHT22;2689;50.954;7.116;2022-12-07T01:29:51;6.20;99.90
5334;DHT22;2689;50.954;7.116;2022-12-07T01:32:21;6.20;99.90
5334;DHT22;2689;50.954;7.116;2022-12-07T01:34:49;6.20;99.90
5334;DHT22;2689;50.954;7.116;2022-12-07T01:37:26;6.20;99.90
5334;DHT22;2689;50.954;7.116;2022-12-07T01:42:47;6.20;99.90
5334;DHT22;2689;50.954;7.116;2022-12-07T01:45:58;6.20;99.90
5334;DHT22;2689;50.954;7.116;2022-12-07T01:48:32;6.20;99.90
5334;DHT22;2689;50.954;7.116;2022-12-07T01:51:12;6.20;99.90
5334;DHT22;2689;50.954;7.116;2022-12-07T01:53:54;6.20;99.90
5334;DHT22;2689;50.954;7.116;2022-12-07T01:56:28;6.30;99.90
5334;DHT22;2689;50.954;7.116;2022-12-07T01:58:56;6.30;99.90
5334;DHT22;2689;50.954;7.116;2022-12-07T02:01:35;6.20;99.90
5334;DHT22;2689;50.954;7.116;2022-12-07T02:04:10;6.20;99.90
5334;DHT22;2689;50.954;7.116;2022-12-07T02:06:41;6.20;99.90
5334;DHT22;2689;50.954;7.116;2022-12-07T02:09:18;6.20;99.90
5334;DHT22;2689;50.954;7.116;2022-12-07T02:11:46;6.20;99.90
5334;DHT22;2689;50.954;7.116;2022-12-07T02:14:28;6.20;99.90
5334;DHT22;2689;50.954;7.116;2022-12-07T02:17:15;6.20;99.90
5334;DHT22;2689;50.954;7.116;2022-12-07T02:20:17;6.20;99.90
5334;DHT22;2689;50.954;7.116;2022-12-07T02:26:04;6.10;99.90
5334;DHT22;2689;50.954;7.116;2022-12-07T02:31:32;6.10;99.90
5334;DHT22;2689;50.954;7.116;2022-12-07T02:34:04;6.10;99.90
5334;DHT22;2689;50.954;7.116;2022-12-07T02:36:40;6.10;99.90
5334;DHT22;2689;50.954;7.116;2022-12-07T02:39:39;6.10;99.90
5334;DHT22;2689;50.954;7.116;2022-12-07T02:42:23;6.20;99.90
5334;DHT22;2689;50.954;7.116;2022-12-07T02:45:06;6.20;99.90
5334;DHT22;2689;50.954;7.116;2022-12-07T02:47:37;6.20;99.90
5334;DHT22;2689;50.954;7.116;2022-12-07T02:50:14;6.20;99.90
5334;DHT22;2689;50.954;7.116;2022-12-07T02:52:49;6.20;99.90
5334;DHT22;2689;50.954;7.116;2022-12-07T02:55:17;6.20;99.90
5334;DHT22;2689;50.954;7.116;2022-12-07T02:57:54;6.20;99.90
5334;DHT22;2689;50.954;7.116;2022-12-07T03:00:29;6.20;99.90
5334;DHT22;2689;50.954;7.116;2022-12-07T03:03:04;6.20;99.90
5334;DHT22;2689;50.954;7.116;2022-12-07T03:05:45;6.20;99.90
5334;DHT22;2689;50.954;7.116;2022-12-07T03:08:28;6.20;99.90
5334;DHT22;2689;50.954;7.116;2022-12-07T03:10:59;6.20;99.90
5334;DHT22;2689;50.954;7.116;2022-12-07T03:13:32;6.20;99.90
5334;DHT22;2689;50.954;7.116;2022-12-07T03:16:07;6.20;99.90
5334;DHT22;2689;50.954;7.116;2022-12-07T03:18:50;6.20;99.90
5334;DHT22;2689;50.954;7.116;2022-12-07T03:21:22;6.20;99.90
5334;DHT22;2689;50.954;7.116;2022-12-07T03:23:53;6.20;99.90
5334;DHT22;2689;50.954;7.116;2022-12-07T03:26:23;6.10;99.90
5334;DHT22;2689;50.954;7.116;2022-12-07T03:28:55;6.10;99.90
5334;DHT22;2689;50.954;7.116;2022-12-07T03:31:28;6.10;99.90
5334;DHT22;2689;50.954;7.116;2022-12-07T03:34:02;6.10;99.90
5334;DHT22;2689;50.954;7.116;2022-12-07T03:36:35;6.10;99.90
5334;DHT22;2689;50.954;7.116;2022-12-07T03:39:12;6.00;99.90
5334;DHT22;2689;50.954;7.116;2022-12-07T03:41:43;6.00;99.90
5334;DHT22;2689;50.954;7.116;2022-12-07T03:44:11;6.10;99.90
5334;DHT22;2689;50.954;7.116;2022-12-07T03:46:44;6.00;99.90
5334;DHT22;2689;50.954;7.116;2022-12-07T03:49:18;6.00;99.90
5334;DHT22;2689;50.954;7.116;2022-12-07T03:51:53;6.00;99.90
5334;DHT22;2689;50.954;7.116;2022-12-07T03:54:24;6.00;99.90
5334;DHT22;2689;50.954;7.116;2022-12-07T03:56:54;6.00;99.90
5334;DHT22;2689;50.954;7.116;2022-12-07T03:59:22;6.00;99.90
5334;DHT22;2689;50.954;7.116;2022-12-07T04:01:57;6.00;99.90
5334;DHT22;2689;50.954;7.116;2022-12-07T04:04:34;6.00;99.90
5334;DHT22;2689;50.954;7.116;2022-12-07T04:07:04;6.10;99.90
5334;DHT22;2689;50.954;7.116;2022-12-07T04:09:38;6.10;99.90
5334;DHT22;2689;50.954;7.116;2022-12-07T04:12:18;6.10;99.90
5334;DHT22;2689;50.954;7.116;2022-12-07T04:14:47;6.10;99.90
5334;DHT22;2689;50.954;7.116;2022-12-07T04:17:17;6.10;99.90
5334;DHT22;2689;50.954;7.116;2022-12-07T04:19:47;6.10;99.90
5334;DHT22;2689;50.954;7.116;2022-12-07T04:22:20;6.10;99.90
5334;DHT22;2689;50.954;7.116;2022-12-07T04:24:48;6.10;99.90
5334;DHT22;2689;50.954;7.116;2022-12-07T04:27:19;6.00;99.90
5334;DHT22;2689;50.954;7.116;2022-12-07T04:29:46;6.00;99.90
5334;DHT22;2689;50.954;7.116;2022-12-07T04:32:21;6.00;99.90
5334;DHT22;2689;50.954;7.116;2022-12-07T04:35:01;6.00;99.90
5334;DHT22;2689;50.954;7.116;2022-12-07T04:37:30;6.00;99.90
5334;DHT22;2689;50.954;7.116;2022-12-07T04:39:59;6.00;99.90
5334;DHT22;2689;50.954;7.116;2022-12-07T04:42:28;6.00;99.90
5334;DHT22;2689;50.954;7.116;2022-12-07T04:45:00;6.00;99.90
5334;DHT22;2689;50.954;7.116;2022-12-07T04:47:31;6.00;99.90
5334;DHT22;2689;50.954;7.116;2022-12-07T04:50:03;6.10;99.90
5334;DHT22;2689;50.954;7.116;2022-12-07T04:52:33;6.10;99.90
5334;DHT22;2689;50.954;7.116;2022-12-07T04:55:05;6.10;99.90
5334;DHT22;2689;50.954;7.116;2022-12-07T04:57:41;6.00;99.90
5334;DHT22;2689;50.954;7.116;2022-12-07T05:00:09;6.00;99.90
5334;DHT22;2689;50.954;7.116;2022-12-07T05:02:36;6.10;99.90
5334;DHT22;2689;50.954;7.116;2022-12-07T05:05:05;6.10;99.90
5334;DHT22;2689;50.954;7.116;2022-12-07T05:07:32;6.10;99.90
5334;DHT22;2689;50.954;7.116;2022-12-07T05:09:59;6.20;99.90
5334;DHT22;2689;50.954;7.116;2022-12-07T05:12:30;6.20;99.90
5334;DHT22;2689;50.954;7.116;2022-12-07T05:14:57;6.20;99.90
5334;DHT22;2689;50.954;7.116;2022-12-07T05:17:24;6.20;99.90
5334;DHT22;2689;50.954;7.116;2022-12-07T05:19:53;6.20;99.90
5334;DHT22;2689;50.954;7.116;2022-12-07T05:22:21;6.20;99.90
5334;DHT22;2689;50.954;7.116;2022-12-07T05:24:50;6.20;99.90
5334;DHT22;2689;50.954;7.116;2022-12-07T05:27:17;6.20;99.90
5334;DHT22;2689;50.954;7.116;2022-12-07T05:29:44;6.20;99.90
5334;DHT22;2689;50.954;7.116;2022-12-07T05:32:11;6.20;99.90
5334;DHT22;2689;50.954;7.116;2022-12-07T05:34:38;6.20;99.90
5334;DHT22;2689;50.954;7.116;2022-12-07T05:37:05;6.10;99.90
5334;DHT22;2689;50.954;7.116;2022-12-07T05:39:39;6.10;99.90
5334;DHT22;2689;50.954;7.116;2022-12-07T05:42:08;6.10;99.90
5334;DHT22;2689;50.954;7.116;2022-12-07T05:44:42;6.10;99.90
5334;DHT22;2689;50.954;7.116;2022-12-07T05:47:10;6.10;99.90
5334;DHT22;2689;50.954;7.116;2022-12-07T05:49:38;6.10;99.90
5334;DHT22;2689;50.954;7.116;2022-12-07T05:52:05;6.10;99.90
5334;DHT22;2689;50.954;7.116;2022-12-07T05:54:32;6.10;99.90
5334;DHT22;2689;50.954;7.116;2022-12-07T05:57:01;6.10;99.90
5334;DHT22;2689;50.954;7.116;2022-12-07T05:59:28;6.00;99.90
5334;DHT22;2689;50.954;7.116;2022-12-07T06:01:56;6.00;99.90
5334;DHT22;2689;50.954;7.116;2022-12-07T06:04:24;6.00;99.90
5334;DHT22;2689;50.954;7.116;2022-12-07T06:06:51;6.00;99.90
5334;DHT22;2689;50.954;7.116;2022-12-07T06:09:19;6.00;99.90
5334;DHT22;2689;50.954;7.116;2022-12-07T06:11:47;6.00;99.90
5334;DHT22;2689;50.954;7.116;2022-12-07T06:14:33;6.00;99.90
5334;DHT22;2689;50.954;7.116;2022-12-07T06:17:00;5.90;99.90
5334;DHT22;2689;50.954;7.116;2022-12-07T06:19:27;5.80;99.90
5334;DHT22;2689;50.954;7.116;2022-12-07T06:21:54;5.80;99.90
5334;DHT22;2689;50.954;7.116;2022-12-07T06:24:21;5.80;99.90
5334;DHT22;2689;50.954;7.116;2022-12-07T06:26:48;5.70;99.90
5334;DHT22;2689;50.954;7.116;2022-12-07T06:29:15;5.80;99.90
5334;DHT22;2689;50.954;7.116;2022-12-07T06:31:44;5.80;99.90
5334;DHT22;2689;50.954;7.116;2022-12-07T06:34:13;5.80;99.90
5334;DHT22;2689;50.954;7.116;2022-12-07T06:36:40;5.80;99.90
5334;DHT22;2689;50.954;7.116;2022-12-07T06:39:07;5.90;99.90
5334;DHT22;2689;50.954;7.116;2022-12-07T06:41:35;5.80;99.90
5334;DHT22;2689;50.954;7.116;2022-12-07T06:44:02;5.90;99.90
5334;DHT22;2689;50.954;7.116;2022-12-07T06:46:29;5.80;99.90
5334;DHT22;2689;50.954;7.116;2022-12-07T06:48:58;5.90;99.90
5334;DHT22;2689;50.954;7.116;2022-12-07T06:51:24;5.90;99.90
5334;DHT22;2689;50.954;7.116;2022-12-07T06:53:51;5.90;99.90
5334;DHT22;2689;50.954;7.116;2022-12-07T06:56:18;5.90;99.90
5334;DHT22;2689;50.954;7.116;2022-12-07T06:58:45;5.90;99.90
5334;DHT22;2689;50.954;7.116;2022-12-07T07:01:14;5.90;99.90
5334;DHT22;2689;50.954;7.116;2022-12-07T07:03:41;5.90;99.90
5334;DHT22;2689;50.954;7.116;2022-12-07T07:06:10;5.90;99.90
5334;DHT22;2689;50.954;7.116;2022-12-07T07:08:38;5.80;99.90
5334;DHT22;2689;50.954;7.116;2022-12-07T07:11:05;5.80;99.90
5334;DHT22;2689;50.954;7.116;2022-12-07T07:13:34;5.80;99.90
5334;DHT22;2689;50.954;7.116;2022-12-07T07:16:01;5.80;99.90
5334;DHT22;2689;50.954;7.116;2022-12-07T07:18:29;5.80;99.90
5334;DHT22;2689;50.954;7.116;2022-12-07T07:20:56;5.80;99.90
5334;DHT22;2689;50.954;7.116;2022-12-07T07:23:24;5.70;99.90
5334;DHT22;2689;50.954;7.116;2022-12-07T07:25:57;5.80;99.90
5334;DHT22;2689;50.954;7.116;2022-12-07T07:28:24;5.80;99.90
5334;DHT22;2689;50.954;7.116;2022-12-07T07:30:51;5.70;99.90
5334;DHT22;2689;50.954;7.116;2022-12-07T07:33:18;5.70;99.90
5334;DHT22;2689;50.954;7.116;2022-12-07T07:35:44;5.80;99.90
5334;DHT22;2689;50.954;7.116;2022-12-07T07:38:11;5.80;99.90
5334;DHT22;2689;50.954;7.116;2022-12-07T07:40:42;5.80;99.90
5334;DHT22;2689;50.954;7.116;2022-12-07T07:43:11;5.80;99.90
5334;DHT22;2689;50.954;7.116;2022-12-07T07:45:38;5.80;99.90
5334;DHT22;2689;50.954;7.116;2022-12-07T07:48:06;5.80;99.90
5334;DHT22;2689;50.954;7.116;2022-12-07T07:50:33;5.80;99.90
5334;DHT22;2689;50.954;7.116;2022-12-07T07:53:00;5.80;99.90
5334;DHT22;2689;50.954;7.116;2022-12-07T07:55:27;5.80;99.90
5334;DHT22;2689;50.954;7.116;2022-12-07T07:57:55;5.80;99.90
5334;DHT22;2689;50.954;7.116;2022-12-07T08:00:22;5.90;99.90
5334;DHT22;2689;50.954;7.116;2022-12-07T08:02:50;6.00;99.90
5334;DHT22;2689;50.954;7.116;2022-12-07T08:05:17;6.10;99.90
5334;DHT22;2689;50.954;7.116;2022-12-07T08:07:44;6.20;99.90
5334;DHT22;2689;50.954;7.116;2022-12-07T08:10:13;6.20;99.90
5334;DHT22;2689;50.954;7.116;2022-12-07T08:12:45;6.30;99.90
5334;DHT22;2689;50.954;7.116;2022-12-07T08:15:33;6.40;99.90
5334;DHT22;2689;50.954;7.116;2022-12-07T08:18:03;6.40;99.90
5334;DHT22;2689;50.954;7.116;2022-12-07T08:20:31;6.40;99.90
5334;DHT22;2689;50.954;7.116;2022-12-07T08:23:02;6.40;99.90
5334;DHT22;2689;50.954;7.116;2022-12-07T08:25:29;6.40;99.90
5334;DHT22;2689;50.954;7.116;2022-12-07T08:27:56;6.40;99.90
5334;DHT22;2689;50.954;7.116;2022-12-07T08:30:23;6.40;99.90
5334;DHT22;2689;50.954;7.116;2022-12-07T08:32:51;6.40;99.90
5334;DHT22;2689;50.954;7.116;2022-12-07T08:35:18;6.30;99.90
5334;DHT22;2689;50.954;7.116;2022-12-07T08:37:45;6.30;99.90
5334;DHT22;2689;50.954;7.116;2022-12-07T08:40:13;6.30;99.90
5334;DHT22;2689;50.954;7.116;2022-12-07T08:42:41;6.30;99.90
5334;DHT22;2689;50.954;7.116;2022-12-07T08:45:11;6.40;99.90
5334;DHT22;2689;50.954;7.116;2022-12-07T08:47:41;6.40;99.90
5334;DHT22;2689;50.954;7.116;2022-12-07T08:50:11;6.30;99.90
5334;DHT22;2689;50.954;7.116;2022-12-07T08:52:39;6.30;99.90
5334;DHT22;2689;50.954;7.116;2022-12-07T08:55:09;6.40;99.90
5334;DHT22;2689;50.954;7.116;2022-12-07T08:57:36;6.40;99.90
5334;DHT22;2689;50.954;7.116;2022-12-07T09:00:04;6.50;99.90
5334;DHT22;2689;50.954;7.116;2022-12-07T09:02:32;6.50;99.90
5334;DHT22;2689;50.954;7.116;2022-12-07T09:04:59;6.50;99.90
5334;DHT22;2689;50.954;7.116;2022-12-07T09:07:27;6.50;99.90
5334;DHT22;2689;50.954;7.116;2022-12-07T09:09:54;6.40;99.90
5334;DHT22;2689;50.954;7.116;2022-12-07T09:12:21;6.40;99.90
5334;DHT22;2689;50.954;7.116;2022-12-07T09:14:48;6.50;99.90
5334;DHT22;2689;50.954;7.116;2022-12-07T09:17:15;6.50;99.90
5334;DHT22;2689;50.954;7.116;2022-12-07T09:19:41;6.50;99.90
5334;DHT22;2689;50.954;7.116;2022-12-07T09:22:09;6.50;99.90
5334;DHT22;2689;50.954;7.116;2022-12-07T09:24:37;6.40;99.90
5334;DHT22;2689;50.954;7.116;2022-12-07T09:27:11;6.50;99.90
5334;DHT22;2689;50.954;7.116;2022-12-07T09:29:38;6.60;99.90
5334;DHT22;2689;50.954;7.116;2022-12-07T09:32:05;6.70;99.90
5334;DHT22;2689;50.954;7.116;2022-12-07T09:34:32;6.70;99.90
5334;DHT22;2689;50.954;7.116;2022-12-07T09:37:01;6.80;99.90
5334;DHT22;2689;50.954;7.116;2022-12-07T09:39:29;6.80;99.90
5334;DHT22;2689;50.954;7.116;2022-12-07T09:41:58;6.90;99.90
5334;DHT22;2689;50.954;7.116;2022-12-07T09:44:29;7.00;99.90
5334;DHT22;2689;50.954;7.116;2022-12-07T09:46:56;7.00;99.90
5334;DHT22;2689;50.954;7.116;2022-12-07T09:49:25;7.10;99.90
5334;DHT22;2689;50.954;7.116;2022-12-07T09:52:03;7.10;99.90
5334;DHT22;2689;50.954;7.116;2022-12-07T09:54:47;7.20;99.90
5334;DHT22;2689;50.954;7.116;2022-12-07T09:57:16;7.20;99.90
5334;DHT22;2689;50.954;7.116;2022-12-07T09:59:44;7.20;99.90
5334;DHT22;2689;50.954;7.116;2022-12-07T10:02:23;7.20;99.90
5334;DHT22;2689;50.954;7.116;2022-12-07T10:04:51;7.20;99.90
5334;DHT22;2689;50.954;7.116;2022-12-07T10:07:18;7.40;99.90
5334;DHT22;2689;50.954;7.116;2022-12-07T10:09:45;7.50;99.90
5334;DHT22;2689;50.954;7.116;2022-12-07T10:12:12;7.60;99.90
5334;DHT22;2689;50.954;7.116;2022-12-07T10:14:53;7.70;99.90
5334;DHT22;2689;50.954;7.116;2022-12-07T10:17:36;7.70;99.90
5334;DHT22;2689;50.954;7.116;2022-12-07T10:20:16;7.60;99.90
5334;DHT22;2689;50.954;7.116;2022-12-07T10:22:55;7.60;99.90
5334;DHT22;2689;50.954;7.116;2022-12-07T10:25:25;7.50;99.90
5334;DHT22;2689;50.954;7.116;2022-12-07T10:28:14;7.50;99.90
5334;DHT22;2689;50.954;7.116;2022-12-07T10:30:52;7.50;99.90
5334;DHT22;2689;50.954;7.116;2022-12-07T10:33:31;7.30;99.90
5334;DHT22;2689;50.954;7.116;2022-12-07T10:35:59;7.20;99.90
5334;DHT22;2689;50.954;7.116;2022-12-07T10:38:27;7.10;99.90
5334;DHT22;2689;50.954;7.116;2022-12-07T10:41:06;7.10;99.90
5334;DHT22;2689;50.954;7.116;2022-12-07T10:43:33;7.10;99.90
5334;DHT22;2689;50.954;7.116;2022-12-07T10:46:14;7.10;99.90
5334;DHT22;2689;50.954;7.116;2022-12-07T10:48:54;7.10;99.90
5334;DHT22;2689;50.954;7.116;2022-12-07T10:51:29;7.10;99.90
5334;DHT22;2689;50.954;7.116;2022-12-07T10:54:04;7.10;99.90
5334;DHT22;2689;50.954;7.116;2022-12-07T10:56:54;7.10;99.90
5334;DHT22;2689;50.954;7.116;2022-12-07T10:59:48;7.20;99.90
5334;DHT22;2689;50.954;7.116;2022-12-07T11:02:40;7.20;99.90
5334;DHT22;2689;50.954;7.116;2022-12-07T11:05:17;7.30;99.90
5334;DHT22;2689;50.954;7.116;2022-12-07T11:07:54;7.30;99.90
5334;DHT22;2689;50.954;7.116;2022-12-07T11:10:30;7.40;99.90
5334;DHT22;2689;50.954;7.116;2022-12-07T11:13:22;7.40;99.90
5334;DHT22;2689;50.954;7.116;2022-12-07T11:16:02;7.40;99.90
5334;DHT22;2689;50.954;7.116;2022-12-07T11:18:39;7.50;99.90
5334;DHT22;2689;50.954;7.116;2022-12-07T11:21:14;7.40;99.90
5334;DHT22;2689;50.954;7.116;2022-12-07T11:23:49;7.40;99.90
5334;DHT22;2689;50.954;7.116;2022-12-07T11:26:28;7.40;99.90
5334;DHT22;2689;50.954;7.116;2022-12-07T11:29:17;7.50;99.90
5334;DHT22;2689;50.954;7.116;2022-12-07T11:32:20;7.50;99.90
5334;DHT22;2689;50.954;7.116;2022-12-07T11:34:59;7.40;99.90
5334;DHT22;2689;50.954;7.116;2022-12-07T11:37:34;7.40;99.90
5334;DHT22;2689;50.954;7.116;2022-12-07T11:40:05;7.40;99.90
5334;DHT22;2689;50.954;7.116;2022-12-07T11:42:37;7.60;99.90
5334;DHT22;2689;50.954;7.116;2022-12-07T11:45:14;7.60;99.90
5334;DHT22;2689;50.954;7.116;2022-12-07T11:47:47;7.60;99.90
5334;DHT22;2689;50.954;7.116;2022-12-07T11:50:25;7.60;99.90
5334;DHT22;2689;50.954;7.116;2022-12-07T11:52:55;7.50;99.90
5334;DHT22;2689;50.954;7.116;2022-12-07T11:56:00;7.40;99.90
5334;DHT22;2689;50.954;7.116;2022-12-07T11:58:59;7.40;99.90
5334;DHT22;2689;50.954;7.116;2022-12-07T12:01:59;7.30;99.90
5334;DHT22;2689;50.954;7.116;2022-12-07T12:04:53;7.20;99.90
5334;DHT22;2689;50.954;7.116;2022-12-07T12:07:37;7.10;99.90
5334;DHT22;2689;50.954;7.116;2022-12-07T12:11:56;7.10;99.90
5334;DHT22;2689;50.954;7.116;2022-12-07T12:14:22;7.20;99.90
5334;DHT22;2689;50.954;7.116;2022-12-07T12:20:35;7.30;99.90
5334;DHT22;2689;50.954;7.116;2022-12-07T12:26:22;7.40;99.90
5334;DHT22;2689;50.954;7.116;2022-12-07T12:28:58;7.30;99.90
5334;DHT22;2689;50.954;7.116;2022-12-07T12:31:36;7.20;99.90
5334;DHT22;2689;50.954;7.116;2022-12-07T12:34:31;7.20;99.90
5334;DHT22;2689;50.954;7.116;2022-12-07T12:36:59;7.10;99.90
5334;DHT22;2689;50.954;7.116;2022-12-07T12:39:26;7.10;99.90
5334;DHT22;2689;50.954;7.116;2022-12-07T12:41:59;7.10;99.90
5334;DHT22;2689;50.954;7.116;2022-12-07T12:45:04;7.10;99.90
5334;DHT22;2689;50.954;7.116;2022-12-07T12:50:28;7.10;99.90
5334;DHT22;2689;50.954;7.116;2022-12-07T12:53:14;7.20;99.90
5334;DHT22;2689;50.954;7.116;2022-12-07T12:56:20;7.20;99.90
5334;DHT22;2689;50.954;7.116;2022-12-07T12:59:32;7.20;99.90
5334;DHT22;2689;50.954;7.116;2022-12-07T13:02:19;7.30;99.90
5334;DHT22;2689;50.954;7.116;2022-12-07T13:04:52;7.30;99.90
5334;DHT22;2689;50.954;7.116;2022-12-07T13:07:49;7.40;99.90
5334;DHT22;2689;50.954;7.116;2022-12-07T13:13:43;7.60;99.90
5334;DHT22;2689;50.954;7.116;2022-12-07T13:16:39;7.70;99.90
5334;DHT22;2689;50.954;7.116;2022-12-07T13:22:46;8.00;99.90
5334;DHT22;2689;50.954;7.116;2022-12-07T13:28:14;8.10;99.90
5334;DHT22;2689;50.954;7.116;2022-12-07T13:30:46;8.10;99.90
5334;DHT22;2689;50.954;7.116;2022-12-07T13:33:15;8.10;99.90
5334;DHT22;2689;50.954;7.116;2022-12-07T13:35:50;8.00;99.90
5334;DHT22;2689;50.954;7.116;2022-12-07T13:38:27;8.00;99.90
5334;DHT22;2689;50.954;7.116;2022-12-07T13:41:12;7.80;99.90
5334;DHT22;2689;50.954;7.116;2022-12-07T13:43:59;7.70;99.90
5334;DHT22;2689;50.954;7.116;2022-12-07T13:46:42;7.60;99.90
5334;DHT22;2689;50.954;7.116;2022-12-07T13:49:26;7.60;99.90
5334;DHT22;2689;50.954;7.116;2022-12-07T13:52:14;7.60;99.90
5334;DHT22;2689;50.954;7.116;2022-12-07T13:54:48;7.60;99.90
5334;DHT22;2689;50.954;7.116;2022-12-07T13:57:19;7.70;99.90
5334;DHT22;2689;50.954;7.116;2022-12-07T13:59:56;7.60;99.90
5334;DHT22;2689;50.954;7.116;2022-12-07T14:02:27;7.50;99.90
5334;DHT22;2689;50.954;7.116;2022-12-07T14:05:13;7.50;99.90
5334;DHT22;2689;50.954;7.116;2022-12-07T14:07:49;7.50;99.90
5334;DHT22;2689;50.954;7.116;2022-12-07T14:10:53;7.40;99.90
5334;DHT22;2689;50.954;7.116;2022-12-07T14:13:36;7.30;99.90
5334;DHT22;2689;50.954;7.116;2022-12-07T14:19:48;7.30;99.90
5334;DHT22;2689;50.954;7.116;2022-12-07T14:22:43;7.30;99.90
5334;DHT22;2689;50.954;7.116;2022-12-07T14:26:03;7.20;99.90
